sensor_id;sensor_type;location;lat;lon;timestamp;pressure;altitude;pressure_sealevel;temperature;humidity
60832;BME280;46665;51.558;-0.448;2023-05-20T00:01:57;102282.59;;;9.94;100.00
60832;BME280;46665;51.558;-0.448;2023-05-20T00:04:23;102275.25;;;9.94;100.00
60832;BME280;46665;51.558;-0.448;2023-05-20T00:06:48;102276.69;;;9.85;100.00
60832;BME280;46665;51.558;-0.448;2023-05-20T00:09:14;102284.34;;;9.76;100.00
60832;BME280;46665;51.558;-0.448;2023-05-20T00:11:41;102276.91;;;9.60;100.00
60832;BME280;46665;51.558;-0.448;2023-05-20T00:14:07;102272.78;;;9.58;100.00
60832;BME280;46665;51.558;-0.448;2023-05-20T00:16:32;102268.72;;;9.48;100.00
60832;BME280;46665;51.558;-0.448;2023-05-20T00:18:58;102266.38;;;9.40;100.00
60832;BME280;46665;51.558;-0.448;2023-05-20T00:21:23;102266.22;;;9.35;100.00
60832;BME280;46665;51.558;-0.448;2023-05-20T00:23:49;102266.72;;;9.32;100.00
60832;BME280;46665;51.558;-0.448;2023-05-20T00:26:15;102264.56;;;9.34;100.00
60832;BME280;46665;51.558;-0.448;2023-05-20T00:28:41;102266.22;;;9.35;100.00
60832;BME280;46665;51.558;-0.448;2023-05-20T00:31:06;102270.59;;;9.36;100.00
60832;BME280;46665;51.558;-0.448;2023-05-20T00:33:32;102275.22;;;9.36;100.00
60832;BME280;46665;51.558;-0.448;2023-05-20T00:35:57;102270.59;;;9.36;100.00
60832;BME280;46665;51.558;-0.448;2023-05-20T00:38:22;102273.31;;;9.36;100.00
60832;BME280;46665;51.558;-0.448;2023-05-20T00:40:48;102276.84;;;9.37;100.00
60832;BME280;46665;51.558;-0.448;2023-05-20T00:43:13;102270.13;;;9.27;100.00
60832;BME280;46665;51.558;-0.448;2023-05-20T00:45:39;102266.44;;;9.22;100.00
60832;BME280;46665;51.558;-0.448;2023-05-20T00:48:05;102260.03;;;9.16;100.00
60832;BME280;46665;51.558;-0.448;2023-05-20T00:50:31;102250.59;;;9.07;100.00
60832;BME280;46665;51.558;-0.448;2023-05-20T00:52:56;102258.34;;;9.03;100.00
60832;BME280;46665;51.558;-0.448;2023-05-20T00:55:23;102260.72;;;9.00;100.00
60832;BME280;46665;51.558;-0.448;2023-05-20T00:57:49;102253.59;;;8.87;100.00
60832;BME280;46665;51.558;-0.448;2023-05-20T01:00:15;102259.22;;;8.85;100.00
60832;BME280;46665;51.558;-0.448;2023-05-20T01:02:40;102260.75;;;8.81;100.00
60832;BME280;46665;51.558;-0.448;2023-05-20T01:05:06;102252.91;;;8.73;100.00
60832;BME280;46665;51.558;-0.448;2023-05-20T01:07:32;102257.31;;;8.74;100.00
60832;BME280;46665;51.558;-0.448;2023-05-20T01:09:58;102253.16;;;8.72;100.00
60832;BME280;46665;51.558;-0.448;2023-05-20T01:12:40;102242.03;;;8.61;100.00
60832;BME280;46665;51.558;-0.448;2023-05-20T01:15:09;102243.31;;;8.59;100.00
60832;BME280;46665;51.558;-0.448;2023-05-20T01:17:43;102236.47;;;8.56;100.00
60832;BME280;46665;51.558;-0.448;2023-05-20T01:20:12;102237.59;;;8.49;100.00
60832;BME280;46665;51.558;-0.448;2023-05-20T01:22:51;102239.25;;;8.50;100.00
60832;BME280;46665;51.558;-0.448;2023-05-20T01:25:16;102239.31;;;8.43;100.00
60832;BME280;46665;51.558;-0.448;2023-05-20T01:27:42;102239.94;;;8.45;100.00
60832;BME280;46665;51.558;-0.448;2023-05-20T01:30:08;102239.78;;;8.40;100.00
60832;BME280;46665;51.558;-0.448;2023-05-20T01:32:37;102233.13;;;8.36;100.00
60832;BME280;46665;51.558;-0.448;2023-05-20T01:35:05;102237.50;;;8.37;100.00
60832;BME280;46665;51.558;-0.448;2023-05-20T01:37:31;102225.44;;;8.33;100.00
60832;BME280;46665;51.558;-0.448;2023-05-20T01:39:59;102220.88;;;8.33;100.00
60832;BME280;46665;51.558;-0.448;2023-05-20T01:42:26;102223.56;;;8.33;100.00
60832;BME280;46665;51.558;-0.448;2023-05-20T01:44:52;102221.91;;;8.32;100.00
60832;BME280;46665;51.558;-0.448;2023-05-20T01:47:18;102224.25;;;8.29;100.00
60832;BME280;46665;51.558;-0.448;2023-05-20T01:49:43;102215.97;;;8.23;100.00
60832;BME280;46665;51.558;-0.448;2023-05-20T01:52:10;102219.50;;;8.24;100.00
60832;BME280;46665;51.558;-0.448;2023-05-20T01:54:36;102221.59;;;8.22;100.00
60832;BME280;46665;51.558;-0.448;2023-05-20T01:57:01;102218.44;;;8.25;100.00
60832;BME280;46665;51.558;-0.448;2023-05-20T01:59:27;102215.56;;;8.20;100.00
60832;BME280;46665;51.558;-0.448;2023-05-20T02:01:52;102210.41;;;8.18;100.00
60832;BME280;46665;51.558;-0.448;2023-05-20T02:04:18;102212.28;;;8.18;100.00
60832;BME280;46665;51.558;-0.448;2023-05-20T02:06:44;102209.31;;;8.19;100.00
60832;BME280;46665;51.558;-0.448;2023-05-20T02:09:10;102199.75;;;8.17;100.00
60832;BME280;46665;51.558;-0.448;2023-05-20T02:11:35;102206.41;;;8.21;100.00
60832;BME280;46665;51.558;-0.448;2023-05-20T02:14:01;102200.72;;;8.22;100.00
60832;BME280;46665;51.558;-0.448;2023-05-20T02:16:26;102204.28;;;8.23;100.00
60832;BME280;46665;51.558;-0.448;2023-05-20T02:18:52;102201.72;;;8.28;100.00
60832;BME280;46665;51.558;-0.448;2023-05-20T02:21:17;102192.53;;;8.29;100.00
60832;BME280;46665;51.558;-0.448;2023-05-20T02:23:42;102199.59;;;8.30;100.00
60832;BME280;46665;51.558;-0.448;2023-05-20T02:26:08;102195.91;;;8.24;100.00
60832;BME280;46665;51.558;-0.448;2023-05-20T02:28:33;102181.53;;;8.24;100.00
60832;BME280;46665;51.558;-0.448;2023-05-20T02:30:59;102192.38;;;8.24;100.00
60832;BME280;46665;51.558;-0.448;2023-05-20T02:33:24;102184.47;;;8.22;100.00
60832;BME280;46665;51.558;-0.448;2023-05-20T02:35:52;102187.56;;;8.26;100.00
60832;BME280;46665;51.558;-0.448;2023-05-20T02:38:17;102191.31;;;8.25;100.00
60832;BME280;46665;51.558;-0.448;2023-05-20T02:40:45;102188.25;;;8.21;100.00
60832;BME280;46665;51.558;-0.448;2023-05-20T02:43:11;102191.63;;;8.17;100.00
60832;BME280;46665;51.558;-0.448;2023-05-20T02:45:36;102199.75;;;8.17;100.00
60832;BME280;46665;51.558;-0.448;2023-05-20T02:48:01;102206.25;;;8.16;100.00
60832;BME280;46665;51.558;-0.448;2023-05-20T02:50:27;102182.59;;;8.04;100.00
60832;BME280;46665;51.558;-0.448;2023-05-20T02:52:52;102187.41;;;8.02;100.00
60832;BME280;46665;51.558;-0.448;2023-05-20T02:55:18;102203.09;;;8.00;100.00
60832;BME280;46665;51.558;-0.448;2023-05-20T02:57:43;102203.53;;;7.97;100.00
60832;BME280;46665;51.558;-0.448;2023-05-20T03:00:09;102200.81;;;7.97;100.00
60832;BME280;46665;51.558;-0.448;2023-05-20T03:02:35;102201.28;;;7.94;100.00
60832;BME280;46665;51.558;-0.448;2023-05-20T03:05:01;102197.75;;;7.94;100.00
60832;BME280;46665;51.558;-0.448;2023-05-20T03:07:28;102192.91;;;7.96;100.00
60832;BME280;46665;51.558;-0.448;2023-05-20T03:09:53;102200.81;;;7.97;100.00
60832;BME280;46665;51.558;-0.448;2023-05-20T03:12:18;102202.03;;;8.01;100.00
60832;BME280;46665;51.558;-0.448;2023-05-20T03:14:44;102202.03;;;8.01;100.00
60832;BME280;46665;51.558;-0.448;2023-05-20T03:17:10;102200.97;;;8.02;100.00
60832;BME280;46665;51.558;-0.448;2023-05-20T03:19:35;102197.22;;;8.03;100.00
60832;BME280;46665;51.558;-0.448;2023-05-20T03:22:01;102192.63;;;8.04;100.00
60832;BME280;46665;51.558;-0.448;2023-05-20T03:24:27;102194.09;;;8.00;100.00
60832;BME280;46665;51.558;-0.448;2023-05-20T03:26:53;102187.03;;;7.99;100.00
60832;BME280;46665;51.558;-0.448;2023-05-20T03:29:18;102190.44;;;7.94;100.00
60832;BME280;46665;51.558;-0.448;2023-05-20T03:31:44;102181.47;;;7.94;100.00
60832;BME280;46665;51.558;-0.448;2023-05-20T03:34:09;102187.72;;;7.94;100.00
60832;BME280;46665;51.558;-0.448;2023-05-20T03:36:35;102192.97;;;7.89;100.00
60832;BME280;46665;51.558;-0.448;2023-05-20T03:39:00;102187.97;;;7.93;100.00
60832;BME280;46665;51.558;-0.448;2023-05-20T03:41:27;102177.13;;;7.93;100.00
60832;BME280;46665;51.558;-0.448;2023-05-20T03:43:52;102183.34;;;7.93;100.00
60832;BME280;46665;51.558;-0.448;2023-05-20T03:46:17;102189.25;;;7.90;100.00
60832;BME280;46665;51.558;-0.448;2023-05-20T03:48:43;102178.97;;;7.92;100.00
60832;BME280;46665;51.558;-0.448;2023-05-20T03:51:08;102187.09;;;7.92;100.00
60832;BME280;46665;51.558;-0.448;2023-05-20T03:53:34;102184.03;;;7.89;100.00
60832;BME280;46665;51.558;-0.448;2023-05-20T03:55:59;102180.88;;;7.92;100.00
60832;BME280;46665;51.558;-0.448;2023-05-20T03:58:25;102182.53;;;7.93;100.00
60832;BME280;46665;51.558;-0.448;2023-05-20T04:00:54;102171.31;;;7.89;100.00
60832;BME280;46665;51.558;-0.448;2023-05-20T04:03:19;102178.16;;;7.92;100.00
60832;BME280;46665;51.558;-0.448;2023-05-20T04:05:45;102166.69;;;7.90;100.00
60832;BME280;46665;51.558;-0.448;2023-05-20T04:08:10;102176.50;;;7.91;100.00
60832;BME280;46665;51.558;-0.448;2023-05-20T04:10:40;102169.19;;;7.91;100.00
60832;BME280;46665;51.558;-0.448;2023-05-20T04:13:06;102158.16;;;7.93;100.00
60832;BME280;46665;51.558;-0.448;2023-05-20T04:15:34;102164.16;;;7.95;100.00
60832;BME280;46665;51.558;-0.448;2023-05-20T04:18:00;102166.63;;;7.96;100.00
60832;BME280;46665;51.558;-0.448;2023-05-20T04:20:26;102160.16;;;7.97;100.00
60832;BME280;46665;51.558;-0.448;2023-05-20T04:22:51;102166.63;;;7.96;100.00
60832;BME280;46665;51.558;-0.448;2023-05-20T04:25:18;102158.28;;;7.98;100.00
60832;BME280;46665;51.558;-0.448;2023-05-20T04:27:43;102164.28;;;8.00;100.00
60832;BME280;46665;51.558;-0.448;2023-05-20T04:30:09;102167.00;;;8.00;100.00
60832;BME280;46665;51.558;-0.448;2023-05-20T04:32:35;102168.22;;;8.04;100.00
60832;BME280;46665;51.558;-0.448;2023-05-20T04:35:00;102165.72;;;8.02;100.00
60832;BME280;46665;51.558;-0.448;2023-05-20T04:37:27;102172.97;;;8.09;100.00
60832;BME280;46665;51.558;-0.448;2023-05-20T04:39:53;102176.03;;;8.12;100.00
60832;BME280;46665;51.558;-0.448;2023-05-20T04:42:18;102168.50;;;8.14;100.00
60832;BME280;46665;51.558;-0.448;2023-05-20T04:44:45;102169.56;;;8.13;100.00
60832;BME280;46665;51.558;-0.448;2023-05-20T04:47:12;102174.47;;;8.23;100.00
60832;BME280;46665;51.558;-0.448;2023-05-20T04:49:37;102178.16;;;8.29;100.00
60832;BME280;46665;51.558;-0.448;2023-05-20T04:52:03;102181.59;;;8.36;100.00
60832;BME280;46665;51.558;-0.448;2023-05-20T04:54:30;102177.00;;;8.36;100.00
60832;BME280;46665;51.558;-0.448;2023-05-20T04:56:57;102183.25;;;8.37;100.00
60832;BME280;46665;51.558;-0.448;2023-05-20T04:59:22;102187.78;;;8.43;100.00
60832;BME280;46665;51.558;-0.448;2023-05-20T05:01:48;102178.75;;;8.49;100.00
60832;BME280;46665;51.558;-0.448;2023-05-20T05:04:13;102182.41;;;8.55;100.00
60832;BME280;46665;51.558;-0.448;2023-05-20T05:06:38;102178.19;;;8.59;100.00
60832;BME280;46665;51.558;-0.448;2023-05-20T05:09:04;102185.66;;;8.63;100.00
60832;BME280;46665;51.558;-0.448;2023-05-20T05:11:29;102187.22;;;8.71;100.00
60832;BME280;46665;51.558;-0.448;2023-05-20T05:13:55;102173.16;;;8.74;100.00
60832;BME280;46665;51.558;-0.448;2023-05-20T05:16:21;102185.19;;;8.78;100.00
60832;BME280;46665;51.558;-0.448;2023-05-20T05:18:46;102175.31;;;8.84;100.00
60832;BME280;46665;51.558;-0.448;2023-05-20T05:21:12;102184.03;;;8.86;100.00
60832;BME280;46665;51.558;-0.448;2023-05-20T05:23:37;102184.91;;;8.86;100.00
60832;BME280;46665;51.558;-0.448;2023-05-20T05:26:03;102181.25;;;8.93;100.00
60832;BME280;46665;51.558;-0.448;2023-05-20T05:28:28;102183.00;;;8.99;100.00
60832;BME280;46665;51.558;-0.448;2023-05-20T05:30:54;102185.03;;;9.03;100.00
60832;BME280;46665;51.558;-0.448;2023-05-20T05:33:23;102180.56;;;9.09;100.00
60832;BME280;46665;51.558;-0.448;2023-05-20T05:35:49;102175.97;;;9.09;100.00
60832;BME280;46665;51.558;-0.448;2023-05-20T05:38:14;102181.75;;;9.13;100.00
60832;BME280;46665;51.558;-0.448;2023-05-20T05:40:40;102179.41;;;9.17;100.00
60832;BME280;46665;51.558;-0.448;2023-05-20T05:43:06;102170.41;;;9.16;100.00
60832;BME280;46665;51.558;-0.448;2023-05-20T05:45:31;102179.75;;;9.20;100.00
60832;BME280;46665;51.558;-0.448;2023-05-20T05:47:56;102167.38;;;9.24;100.00
60832;BME280;46665;51.558;-0.448;2023-05-20T05:50:22;102167.72;;;9.28;100.00
60832;BME280;46665;51.558;-0.448;2023-05-20T05:52:48;102178.47;;;9.35;100.00
60832;BME280;46665;51.558;-0.448;2023-05-20T05:55:13;102164.91;;;9.35;100.00
60832;BME280;46665;51.558;-0.448;2023-05-20T05:57:38;102167.72;;;9.40;100.00
60832;BME280;46665;51.558;-0.448;2023-05-20T06:00:04;102168.78;;;9.39;100.00
60832;BME280;46665;51.558;-0.448;2023-05-20T06:02:30;102166.19;;;9.44;100.00
60832;BME280;46665;51.558;-0.448;2023-05-20T06:05:02;102166.44;;;9.42;100.00
60832;BME280;46665;51.558;-0.448;2023-05-20T06:07:28;102174.72;;;9.47;100.00
60832;BME280;46665;51.558;-0.448;2023-05-20T06:09:53;102174.81;;;9.52;100.00
60832;BME280;46665;51.558;-0.448;2023-05-20T06:12:19;102170.81;;;9.55;100.00
60832;BME280;46665;51.558;-0.448;2023-05-20T06:14:44;102170.53;;;9.57;100.00
60832;BME280;46665;51.558;-0.448;2023-05-20T06:17:10;102165.22;;;9.62;100.00
60832;BME280;46665;51.558;-0.448;2023-05-20T06:19:35;102173.28;;;9.68;100.00
60832;BME280;46665;51.558;-0.448;2023-05-20T06:22:01;102167.59;;;9.70;100.00
60832;BME280;46665;51.558;-0.448;2023-05-20T06:24:26;102171.97;;;9.71;100.00
60832;BME280;46665;51.558;-0.448;2023-05-20T06:26:51;102171.25;;;9.75;100.00
60832;BME280;46665;51.558;-0.448;2023-05-20T06:29:17;102169.69;;;9.80;100.00
60832;BME280;46665;51.558;-0.448;2023-05-20T06:31:42;102170.88;;;9.84;100.00
60832;BME280;46665;51.558;-0.448;2023-05-20T06:34:08;102174.78;;;9.88;100.00
60832;BME280;46665;51.558;-0.448;2023-05-20T06:36:33;102174.31;;;9.91;100.00
60832;BME280;46665;51.558;-0.448;2023-05-20T06:38:58;102176.06;;;9.97;100.00
60832;BME280;46665;51.558;-0.448;2023-05-20T06:41:24;102168.25;;;10.01;100.00
60832;BME280;46665;51.558;-0.448;2023-05-20T06:43:50;102172.13;;;10.05;100.00
60832;BME280;46665;51.558;-0.448;2023-05-20T06:46:16;102161.38;;;10.10;100.00
60832;BME280;46665;51.558;-0.448;2023-05-20T06:48:41;102162.53;;;10.14;100.00
60832;BME280;46665;51.558;-0.448;2023-05-20T06:51:07;102160.16;;;10.17;100.00
60832;BME280;46665;51.558;-0.448;2023-05-20T06:53:35;102158.53;;;10.16;100.00
60832;BME280;46665;51.558;-0.448;2023-05-20T06:56:01;102158.03;;;10.19;100.00
60832;BME280;46665;51.558;-0.448;2023-05-20T06:58:27;102155.66;;;10.23;100.00
60832;BME280;46665;51.558;-0.448;2023-05-20T07:00:53;102161.34;;;10.22;100.00
60832;BME280;46665;51.558;-0.448;2023-05-20T07:03:18;102153.78;;;10.24;100.00
60832;BME280;46665;51.558;-0.448;2023-05-20T07:05:43;102154.50;;;10.31;100.00
60832;BME280;46665;51.558;-0.448;2023-05-20T07:08:09;102152.44;;;10.38;100.00
60832;BME280;46665;51.558;-0.448;2023-05-20T07:10:35;102161.19;;;10.40;100.00
60832;BME280;46665;51.558;-0.448;2023-05-20T07:13:01;102151.38;;;10.39;100.00
60832;BME280;46665;51.558;-0.448;2023-05-20T07:15:26;102155.16;;;10.38;100.00
60832;BME280;46665;51.558;-0.448;2023-05-20T07:17:51;102154.59;;;10.36;100.00
60832;BME280;46665;51.558;-0.448;2023-05-20T07:20:17;102150.78;;;10.37;100.00
60832;BME280;46665;51.558;-0.448;2023-05-20T07:22:42;102158.34;;;10.35;100.00
60832;BME280;46665;51.558;-0.448;2023-05-20T07:25:08;102161.19;;;10.40;100.00
60832;BME280;46665;51.558;-0.448;2023-05-20T07:27:34;102153.69;;;10.47;100.00
60832;BME280;46665;51.558;-0.448;2023-05-20T07:30:00;102152.97;;;10.52;100.00
60832;BME280;46665;51.558;-0.448;2023-05-20T07:32:25;102145.59;;;10.64;100.00
60832;BME280;46665;51.558;-0.448;2023-05-20T07:34:50;102149.16;;;10.81;100.00
60832;BME280;46665;51.558;-0.448;2023-05-20T07:37:16;102148.00;;;10.94;100.00
60832;BME280;46665;51.558;-0.448;2023-05-20T07:39:41;102145.53;;;11.10;100.00
60832;BME280;46665;51.558;-0.448;2023-05-20T07:42:07;102140.47;;;11.18;100.00
60832;BME280;46665;51.558;-0.448;2023-05-20T07:44:32;102147.34;;;11.38;100.00
60832;BME280;46665;51.558;-0.448;2023-05-20T07:46:57;102143.66;;;11.49;100.00
60832;BME280;46665;51.558;-0.448;2023-05-20T07:49:23;102149.97;;;11.49;100.00
60832;BME280;46665;51.558;-0.448;2023-05-20T07:51:48;102142.28;;;11.46;100.00
60832;BME280;46665;51.558;-0.448;2023-05-20T07:54:14;102147.06;;;11.39;100.00
60832;BME280;46665;51.558;-0.448;2023-05-20T07:56:40;102147.34;;;11.38;100.00
60832;BME280;46665;51.558;-0.448;2023-05-20T07:59:05;102136.44;;;11.38;100.00
60832;BME280;46665;51.558;-0.448;2023-05-20T08:01:31;102141.59;;;11.39;100.00
60832;BME280;46665;51.558;-0.448;2023-05-20T08:03:57;102127.75;;;11.41;100.00
60832;BME280;46665;51.558;-0.448;2023-05-20T08:06:22;102133.03;;;11.47;100.00
60832;BME280;46665;51.558;-0.448;2023-05-20T08:08:51;102131.44;;;11.52;100.00
60832;BME280;46665;51.558;-0.448;2023-05-20T08:11:20;102126.97;;;11.62;100.00
60832;BME280;46665;51.558;-0.448;2023-05-20T08:13:47;102121.06;;;11.70;100.00
60832;BME280;46665;51.558;-0.448;2023-05-20T08:16:12;102119.81;;;11.78;100.00
60832;BME280;46665;51.558;-0.448;2023-05-20T08:18:38;102126.47;;;11.87;100.00
60832;BME280;46665;51.558;-0.448;2023-05-20T08:21:05;102110.22;;;11.92;100.00
60832;BME280;46665;51.558;-0.448;2023-05-20T08:23:34;102113.53;;;12.00;100.00
60832;BME280;46665;51.558;-0.448;2023-05-20T08:26:00;102112.78;;;12.04;100.00
60832;BME280;46665;51.558;-0.448;2023-05-20T08:28:29;102110.44;;;12.13;100.00
60832;BME280;46665;51.558;-0.448;2023-05-20T08:30:55;102111.91;;;12.21;100.00
60832;BME280;46665;51.558;-0.448;2023-05-20T08:33:22;102104.06;;;12.29;100.00
60832;BME280;46665;51.558;-0.448;2023-05-20T08:35:48;102106.06;;;12.39;100.00
60832;BME280;46665;51.558;-0.448;2023-05-20T08:38:13;102100.97;;;12.48;100.00
60832;BME280;46665;51.558;-0.448;2023-05-20T08:40:39;102101.59;;;12.55;100.00
60832;BME280;46665;51.558;-0.448;2023-05-20T08:43:05;102111.22;;;12.63;100.00
60832;BME280;46665;51.558;-0.448;2023-05-20T08:45:31;102106.13;;;12.71;100.00
60832;BME280;46665;51.558;-0.448;2023-05-20T08:47:57;102109.47;;;12.84;100.00
60832;BME280;46665;51.558;-0.448;2023-05-20T08:50:23;102107.63;;;12.89;99.35
60832;BME280;46665;51.558;-0.448;2023-05-20T08:52:48;102100.84;;;12.97;97.93
60832;BME280;46665;51.558;-0.448;2023-05-20T08:55:19;102108.03;;;13.08;97.35
60832;BME280;46665;51.558;-0.448;2023-05-20T08:57:54;102107.84;;;13.20;94.62
60832;BME280;46665;51.558;-0.448;2023-05-20T09:00:21;102104.41;;;13.30;95.82
60832;BME280;46665;51.558;-0.448;2023-05-20T09:02:51;102093.00;;;13.43;96.08
60832;BME280;46665;51.558;-0.448;2023-05-20T09:05:17;102090.03;;;13.50;93.81
60832;BME280;46665;51.558;-0.448;2023-05-20T09:07:43;102093.59;;;13.55;93.73
60832;BME280;46665;51.558;-0.448;2023-05-20T09:10:09;102084.34;;;13.66;94.30
60832;BME280;46665;51.558;-0.448;2023-05-20T09:12:35;102077.53;;;13.74;94.80
60832;BME280;46665;51.558;-0.448;2023-05-20T09:15:01;102081.41;;;13.83;93.91
60832;BME280;46665;51.558;-0.448;2023-05-20T09:17:27;102080.66;;;13.98;91.50
60832;BME280;46665;51.558;-0.448;2023-05-20T09:19:52;102083.97;;;14.05;90.53
60832;BME280;46665;51.558;-0.448;2023-05-20T09:22:22;102081.25;;;14.16;90.46
60832;BME280;46665;51.558;-0.448;2023-05-20T09:24:48;102081.78;;;14.23;86.57
60832;BME280;46665;51.558;-0.448;2023-05-20T09:27:14;102075.81;;;14.31;88.20
60832;BME280;46665;51.558;-0.448;2023-05-20T09:29:39;102085.41;;;14.39;87.33
60832;BME280;46665;51.558;-0.448;2023-05-20T09:32:05;102070.34;;;14.46;85.14
60832;BME280;46665;51.558;-0.448;2023-05-20T09:34:30;102073.66;;;14.54;85.35
60832;BME280;46665;51.558;-0.448;2023-05-20T09:36:58;102072.00;;;14.63;86.03
60832;BME280;46665;51.558;-0.448;2023-05-20T09:39:24;102065.97;;;14.71;84.74
60832;BME280;46665;51.558;-0.448;2023-05-20T09:42:06;102076.41;;;14.74;81.68
60832;BME280;46665;51.558;-0.448;2023-05-20T09:44:33;102074.22;;;14.81;81.58
60832;BME280;46665;51.558;-0.448;2023-05-20T09:47:00;102064.88;;;14.87;82.47
60832;BME280;46665;51.558;-0.448;2023-05-20T09:49:27;102061.88;;;14.94;81.66
60832;BME280;46665;51.558;-0.448;2023-05-20T09:51:53;102058.84;;;15.01;82.55
60832;BME280;46665;51.558;-0.448;2023-05-20T09:54:21;102056.06;;;15.11;80.91
60832;BME280;46665;51.558;-0.448;2023-05-20T09:56:48;102053.88;;;15.18;81.26
60832;BME280;46665;51.558;-0.448;2023-05-20T09:59:17;102047.53;;;15.28;81.39
60832;BME280;46665;51.558;-0.448;2023-05-20T10:01:45;102046.97;;;15.36;81.07
60832;BME280;46665;51.558;-0.448;2023-05-20T10:04:12;102049.69;;;15.46;80.59
60832;BME280;46665;51.558;-0.448;2023-05-20T10:06:59;102045.25;;;15.60;80.96
60832;BME280;46665;51.558;-0.448;2023-05-20T10:15:16;102044.38;;;15.75;77.83
60832;BME280;46665;51.558;-0.448;2023-05-20T10:20:23;102044.03;;;15.87;76.16
60832;BME280;46665;51.558;-0.448;2023-05-20T10:22:55;102034.97;;;15.87;75.62
60832;BME280;46665;51.558;-0.448;2023-05-20T10:25:28;102036.03;;;15.96;74.44
60832;BME280;46665;51.558;-0.448;2023-05-20T10:28:06;102037.03;;;16.10;74.17
60832;BME280;46665;51.558;-0.448;2023-05-20T10:30:32;102031.19;;;16.22;72.72
60832;BME280;46665;51.558;-0.448;2023-05-20T10:33:03;102027.03;;;16.30;71.46
60832;BME280;46665;51.558;-0.448;2023-05-20T10:35:29;102033.63;;;16.29;70.47
60832;BME280;46665;51.558;-0.448;2023-05-20T10:38:07;102038.28;;;16.33;67.84
60832;BME280;46665;51.558;-0.448;2023-05-20T10:40:32;102039.09;;;16.34;68.26
60832;BME280;46665;51.558;-0.448;2023-05-20T10:43:08;102018.47;;;16.36;68.30
60832;BME280;46665;51.558;-0.448;2023-05-20T10:45:33;102021.41;;;16.45;68.07
60832;BME280;46665;51.558;-0.448;2023-05-20T10:48:01;102025.53;;;16.42;67.19
60832;BME280;46665;51.558;-0.448;2023-05-20T10:50:37;102016.13;;;16.54;69.67
60832;BME280;46665;51.558;-0.448;2023-05-20T10:53:05;102018.53;;;16.60;67.33
60832;BME280;46665;51.558;-0.448;2023-05-20T10:55:35;102016.28;;;16.67;67.48
60832;BME280;46665;51.558;-0.448;2023-05-20T10:58:01;102002.81;;;16.66;66.58
60832;BME280;46665;51.558;-0.448;2023-05-20T11:00:28;102005.00;;;16.69;65.20
60832;BME280;46665;51.558;-0.448;2023-05-20T11:02:54;102007.78;;;16.64;64.87
60832;BME280;46665;51.558;-0.448;2023-05-20T11:05:20;102006.63;;;16.70;66.60
60832;BME280;46665;51.558;-0.448;2023-05-20T11:07:45;102008.22;;;16.81;63.74
60832;BME280;46665;51.558;-0.448;2023-05-20T11:10:11;102002.94;;;16.85;63.04
60832;BME280;46665;51.558;-0.448;2023-05-20T11:12:38;101994.06;;;16.93;61.22
60832;BME280;46665;51.558;-0.448;2023-05-20T11:15:04;101999.84;;;16.92;61.69
60832;BME280;46665;51.558;-0.448;2023-05-20T11:17:29;102000.91;;;16.96;62.06
60832;BME280;46665;51.558;-0.448;2023-05-20T11:19:55;101995.00;;;17.07;62.42
60832;BME280;46665;51.558;-0.448;2023-05-20T11:22:24;101990.59;;;17.30;63.48
60832;BME280;46665;51.558;-0.448;2023-05-20T11:24:50;101989.13;;;17.38;61.57
60832;BME280;46665;51.558;-0.448;2023-05-20T11:27:15;101986.19;;;17.53;61.64
60832;BME280;46665;51.558;-0.448;2023-05-20T11:29:41;101989.53;;;17.69;60.37
60832;BME280;46665;51.558;-0.448;2023-05-20T11:32:06;101987.38;;;17.90;60.55
60832;BME280;46665;51.558;-0.448;2023-05-20T11:34:36;101988.97;;;18.10;58.62
60832;BME280;46665;51.558;-0.448;2023-05-20T11:37:06;101995.75;;;18.18;55.90
60832;BME280;46665;51.558;-0.448;2023-05-20T11:39:32;101989.56;;;18.26;56.21
60832;BME280;46665;51.558;-0.448;2023-05-20T11:41:58;101992.22;;;18.31;56.69
60832;BME280;46665;51.558;-0.448;2023-05-20T11:44:24;101982.13;;;18.40;55.54
60832;BME280;46665;51.558;-0.448;2023-05-20T11:46:50;101985.41;;;18.42;56.71
60832;BME280;46665;51.558;-0.448;2023-05-20T11:49:15;101976.78;;;18.49;55.94
60832;BME280;46665;51.558;-0.448;2023-05-20T11:51:42;101976.97;;;18.53;54.08
60832;BME280;46665;51.558;-0.448;2023-05-20T11:54:08;101974.97;;;18.58;54.82
60832;BME280;46665;51.558;-0.448;2023-05-20T11:56:38;101966.03;;;18.48;54.87
60832;BME280;46665;51.558;-0.448;2023-05-20T11:59:07;101976.16;;;18.52;54.86
60832;BME280;46665;51.558;-0.448;2023-05-20T12:01:35;101972.59;;;18.52;55.07
60832;BME280;46665;51.558;-0.448;2023-05-20T12:04:11;101965.03;;;18.44;54.94
60832;BME280;46665;51.558;-0.448;2023-05-20T12:06:40;101954.63;;;18.54;54.34
60832;BME280;46665;51.558;-0.448;2023-05-20T12:09:07;101961.19;;;18.58;53.66
60832;BME280;46665;51.558;-0.448;2023-05-20T12:11:41;101955.34;;;18.60;53.87
60832;BME280;46665;51.558;-0.448;2023-05-20T12:14:08;101959.50;;;18.44;54.49
60832;BME280;46665;51.558;-0.448;2023-05-20T12:16:34;101948.97;;;18.32;53.53
60832;BME280;46665;51.558;-0.448;2023-05-20T12:19:00;101954.75;;;18.30;54.54
60832;BME280;46665;51.558;-0.448;2023-05-20T12:21:27;101951.16;;;18.49;55.52
60832;BME280;46665;51.558;-0.448;2023-05-20T12:23:53;101946.13;;;18.51;55.22
60832;BME280;46665;51.558;-0.448;2023-05-20T12:26:25;101944.22;;;18.51;55.57
60832;BME280;46665;51.558;-0.448;2023-05-20T12:28:52;101940.47;;;18.61;55.77
60832;BME280;46665;51.558;-0.448;2023-05-20T12:31:17;101930.53;;;18.60;53.38
60832;BME280;46665;51.558;-0.448;2023-05-20T12:33:43;101943.00;;;18.57;53.79
60832;BME280;46665;51.558;-0.448;2023-05-20T12:36:08;101939.28;;;18.34;53.31
60832;BME280;46665;51.558;-0.448;2023-05-20T12:38:34;101947.44;;;18.26;54.13
60832;BME280;46665;51.558;-0.448;2023-05-20T12:41:00;101937.41;;;18.30;53.97
60832;BME280;46665;51.558;-0.448;2023-05-20T12:43:26;101931.34;;;18.47;54.68